createdAt,value
2018-07-23T00:00:29.013Z,62.9
2018-07-23T00:05:36.447Z,63.4
2018-07-23T00:10:33.730Z,64
2018-07-23T00:15:36.243Z,64.4
2018-07-23T00:20:38.658Z,65
2018-07-23T00:25:41.201Z,65
2018-07-23T00:30:43.595Z,64.7
2018-07-23T00:35:46.005Z,65
2018-07-23T00:40:48.440Z,65.1
2018-07-23T00:45:51.076Z,65.2
2018-07-23T00:50:53.337Z,65.3
2018-07-23T00:55:55.775Z,65.3
2018-07-23T01:00:58.205Z,65.4
2018-07-23T01:06:00.632Z,65.5
2018-07-23T01:11:03.178Z,65.4
2018-07-23T01:16:05.870Z,65.5
2018-07-23T01:21:08.089Z,65.6
2018-07-23T01:26:10.427Z,65.8
2018-07-23T01:31:12.837Z,65.9
2018-07-23T01:36:15.342Z,66
2018-07-23T01:41:17.767Z,66.3
2018-07-23T01:46:20.193Z,66.6
2018-07-23T01:51:22.845Z,66.9
2018-07-23T01:56:25.096Z,67.3
2018-07-23T02:01:27.515Z,67.4
2018-07-23T02:06:30.101Z,67.5
2018-07-23T02:11:32.455Z,67.9
2018-07-23T02:16:34.867Z,67.9
2018-07-23T02:21:37.390Z,68.1
2018-07-23T02:26:44.782Z,68.8
2018-07-23T02:31:42.210Z,68.8
2018-07-23T02:36:44.631Z,68.9
2018-07-23T02:41:47.099Z,69
2018-07-23T02:46:49.524Z,69.2
2018-07-23T02:51:52.018Z,69.5
2018-07-23T02:56:54.421Z,69.3
2018-07-23T03:01:57.212Z,69.7
2018-07-23T03:06:59.689Z,70.2
2018-07-23T03:12:03.308Z,70.4
2018-07-23T03:17:04.506Z,70.3
2018-07-23T03:22:06.672Z,70.5
2018-07-23T03:27:09.223Z,70.5
2018-07-23T03:32:12.114Z,71
2018-07-23T03:37:14.001Z,70.8
2018-07-23T03:42:17.007Z,70.8
2018-07-23T03:47:18.904Z,70.7
2018-07-23T03:52:21.679Z,70.6
2018-07-23T03:57:24.669Z,70.9
2018-07-23T04:02:27.290Z,71.1
2018-07-23T04:07:28.721Z,70.8
2018-07-23T04:17:33.613Z,70.6
2018-07-23T04:22:35.985Z,70.8
2018-07-23T04:27:38.439Z,70.5
2018-07-23T04:32:41.056Z,70.1
2018-07-23T04:37:43.387Z,69.9
2018-07-23T04:42:45.803Z,69.5
2018-07-23T04:47:48.224Z,69
2018-07-23T04:52:50.722Z,68.6
2018-07-23T04:57:53.210Z,68.1
2018-07-23T05:02:55.804Z,67.3
2018-07-23T05:07:58.243Z,66.4
2018-07-23T05:13:00.596Z,65
2018-07-23T05:18:02.911Z,64.1
2018-07-23T05:23:05.353Z,62
2018-07-23T05:28:07.881Z,59.2
2018-07-23T05:33:10.279Z,58
2018-07-23T05:38:12.776Z,57.6
2018-07-23T05:43:15.176Z,57.4
2018-07-23T05:48:20.335Z,56.7
2018-07-23T05:53:20.103Z,55.9
2018-07-23T05:58:22.486Z,53.8
2018-07-23T06:03:24.929Z,48.3
2018-07-23T06:08:27.379Z,44.7
2018-07-23T06:13:30.269Z,41.6
2018-07-23T06:18:32.272Z,39.1
2018-07-23T06:23:34.711Z,37
2018-07-23T06:28:37.647Z,33.8
2018-07-23T06:33:39.634Z,33.4
2018-07-23T06:38:42.062Z,33.5
2018-07-23T06:43:45.093Z,34.9
2018-07-23T06:48:46.955Z,35.5
2018-07-23T06:53:49.411Z,33.9
2018-07-23T06:58:51.852Z,33.1
2018-07-23T07:03:54.512Z,32.8
2018-07-23T07:08:56.734Z,33.1
2018-07-23T07:13:59.235Z,35.9
2018-07-23T07:19:02.166Z,35.5
2018-07-23T07:24:04.120Z,33.2
2018-07-23T07:29:06.505Z,32.3
2018-07-23T07:34:09.517Z,32.1
2018-07-23T07:39:11.581Z,32
2018-07-23T07:54:18.778Z,30.6
2018-07-23T07:59:21.193Z,31.2
2018-07-23T08:04:23.656Z,31
2018-07-23T08:09:26.096Z,32.1
2018-07-23T08:14:28.563Z,31.2
2018-07-23T08:19:31.002Z,33.6
2018-07-23T08:24:33.440Z,34.5
2018-07-23T08:29:36.015Z,35.7
2018-07-23T08:39:40.827Z,33.7
2018-07-23T08:44:43.299Z,34.1
2018-07-23T08:49:45.677Z,33.4
2018-07-23T08:54:48.105Z,32.4
2018-07-23T08:59:50.671Z,32.5
2018-07-23T09:04:53.052Z,31.5
2018-07-23T09:09:55.462Z,32.3
2018-07-23T09:14:57.960Z,31.1
2018-07-23T09:20:00.565Z,31.5
2018-07-23T09:25:02.878Z,31.6
2018-07-23T09:30:05.636Z,32.2
2018-07-23T09:35:07.825Z,33.9
2018-07-23T09:40:10.377Z,35.2
2018-07-23T09:45:13.012Z,36.4
2018-07-23T09:50:15.494Z,37
2018-07-23T09:55:17.527Z,36.7
2018-07-23T10:00:25.061Z,36.5
2018-07-23T10:05:22.385Z,37
2018-07-23T10:10:24.917Z,37.6
2018-07-23T10:15:27.341Z,37
2018-07-23T10:20:29.853Z,36.4
2018-07-23T10:25:32.224Z,36.4
2018-07-23T10:30:34.725Z,35.7
2018-07-23T10:35:37.079Z,36.1
2018-07-23T10:40:39.519Z,35.8
2018-07-23T10:45:42.196Z,36.3
2018-07-23T10:50:44.397Z,37.6
2018-07-23T10:55:46.842Z,37.7
2018-07-23T11:00:49.385Z,35.7
2018-07-23T11:05:51.751Z,36.2
2018-07-23T11:10:54.247Z,36.8
2018-07-23T11:15:56.944Z,36.8
2018-07-23T11:20:59.125Z,36.5
2018-07-23T11:26:01.819Z,36.6
2018-07-23T11:31:04.040Z,36.7
2018-07-23T11:36:06.689Z,36
2018-07-23T11:41:08.899Z,35.3
2018-07-23T11:46:24.423Z,35.3
2018-07-23T11:51:14.040Z,35.2
2018-07-23T11:56:16.272Z,35.7
2018-07-23T12:01:18.683Z,35.4
2018-07-23T12:06:21.126Z,34.9
2018-07-23T12:11:23.610Z,34.4
2018-07-23T12:16:26.015Z,34.9
2018-07-23T12:21:28.458Z,35.9
2018-07-23T12:26:31.196Z,34.9
2018-07-23T12:31:33.392Z,33.9
2018-07-23T12:36:35.773Z,34.6
2018-07-23T12:41:38.268Z,33.5
2018-07-23T12:46:40.731Z,33
2018-07-23T12:51:43.197Z,33.8
2018-07-23T12:56:45.617Z,34.3
2018-07-23T13:01:48.046Z,35.6
2018-07-23T13:06:50.468Z,37.4
2018-07-23T13:11:53.069Z,37.6
2018-07-23T13:16:55.375Z,36.6
2018-07-23T13:21:57.802Z,35.4
2018-07-23T13:32:02.937Z,34.5
2018-07-23T13:37:05.152Z,35.4
2018-07-23T13:42:07.768Z,36.3
2018-07-23T13:47:10.557Z,36
2018-07-23T13:52:12.565Z,36.6
2018-07-23T13:57:15.092Z,35.4
2018-07-23T14:02:17.459Z,35.3
2018-07-23T14:12:22.291Z,34.9
2018-07-23T14:17:24.723Z,35.6
2018-07-23T14:22:27.254Z,36.1
2018-07-23T14:27:29.687Z,35.9
2018-07-23T14:32:32.181Z,36.5
2018-07-23T14:37:34.516Z,35.7
2018-07-23T14:42:36.980Z,35.6
2018-07-23T14:47:39.444Z,33.9
2018-07-23T14:52:41.836Z,35.3
2018-07-23T14:57:44.348Z,34.3
2018-07-23T15:02:46.785Z,35.1
2018-07-23T15:07:49.304Z,35.3
2018-07-23T15:12:51.769Z,33.6
2018-07-23T15:17:54.132Z,34.2
2018-07-23T15:22:56.641Z,34.4
2018-07-23T15:27:58.994Z,34.2
2018-07-23T15:33:01.880Z,33.5
2018-07-23T15:38:03.866Z,32.7
2018-07-23T15:43:06.482Z,32.5
2018-07-23T15:48:08.968Z,32.7
2018-07-23T15:53:11.207Z,32.8
2018-07-23T15:58:13.771Z,32.7
2018-07-23T16:03:17.104Z,33.1
2018-07-23T16:08:18.613Z,34.1
2018-07-23T16:13:21.042Z,34.1
2018-07-23T16:18:23.547Z,34.7
2018-07-23T16:23:25.918Z,34.5
2018-07-23T16:28:28.459Z,34.8
2018-07-23T16:33:31.119Z,33.5
2018-07-23T16:38:33.303Z,33
2018-07-23T16:43:35.897Z,33.4
2018-07-23T16:48:38.126Z,32.4
2018-07-23T16:53:40.773Z,32.2
2018-07-23T16:58:43.296Z,34
2018-07-23T17:03:45.519Z,34.2
2018-07-23T17:08:47.937Z,34.5
2018-07-23T17:13:50.468Z,33.9
2018-07-23T17:18:53.251Z,34.3
2018-07-23T17:23:55.370Z,34.4
2018-07-23T17:28:57.787Z,34.5
2018-07-23T17:34:00.126Z,34.7
2018-07-23T17:39:02.632Z,35
2018-07-23T17:44:05.099Z,34.6
2018-07-23T17:49:12.528Z,35.1
2018-07-23T17:54:09.925Z,35.4
2018-07-23T17:59:12.537Z,35.5
2018-07-23T18:04:15.240Z,36
2018-07-23T18:09:17.254Z,36.4
2018-07-23T18:14:19.699Z,36.9
2018-07-23T18:19:22.362Z,37.3
2018-07-23T18:24:24.625Z,37.9
2018-07-23T18:29:27.301Z,38.6
2018-07-23T18:34:29.863Z,39.2
2018-07-23T18:39:32.202Z,39.9
2018-07-23T18:44:34.890Z,40.3
2018-07-23T18:49:36.969Z,40.7
2018-07-23T18:54:39.329Z,41.6
2018-07-23T18:59:41.832Z,42.2
2018-07-23T19:04:44.321Z,43.3
2018-07-23T19:09:46.648Z,44.1
2018-07-23T19:49:03.562Z,48.9
2018-07-23T19:54:06.147Z,49.3
2018-07-23T19:59:08.432Z,49.9
2018-07-23T20:04:10.888Z,50.6
2018-07-23T20:09:13.529Z,51
2018-07-23T20:14:15.759Z,51.5
2018-07-23T20:19:18.674Z,52
2018-07-23T20:24:20.927Z,52.5
2018-07-23T20:29:23.106Z,52.9
2018-07-23T20:34:25.548Z,53.3
2018-07-23T20:39:28.049Z,53.4
2018-07-23T20:44:30.406Z,53.2
2018-07-23T20:49:32.880Z,53.8
2018-07-23T20:54:35.284Z,53.9
2018-07-23T20:59:37.726Z,54.1
2018-07-23T21:04:40.234Z,54.2
2018-07-23T21:09:42.825Z,54.6
2018-07-23T21:14:45.196Z,55.1
2018-07-23T21:19:47.563Z,55.4
2018-07-23T21:24:50.059Z,55.6
2018-07-23T21:29:52.505Z,55.5
2018-07-23T21:34:54.874Z,55.7
2018-07-23T21:39:57.704Z,55.7
2018-07-23T21:44:59.939Z,55.9
2018-07-23T21:50:02.345Z,55.9
2018-07-23T21:55:04.628Z,56
2018-07-23T22:00:07.237Z,56.6
2018-07-23T22:05:09.499Z,57.1
2018-07-23T22:10:12.428Z,57.4
2018-07-23T22:15:14.469Z,57.8
2018-07-23T22:20:16.797Z,58
2018-07-23T22:25:19.301Z,57.9
2018-07-23T22:30:21.691Z,58.2
2018-07-23T22:35:24.109Z,58.5
2018-07-23T22:40:26.609Z,58.5
2018-07-23T22:45:29.038Z,58.6
2018-07-23T22:50:31.481Z,58.9
2018-07-23T22:55:33.861Z,59.6
2018-07-23T23:00:36.320Z,59.7
2018-07-23T23:05:38.834Z,59.8
2018-07-23T23:10:41.172Z,60.4
2018-07-23T23:15:43.728Z,60.7
2018-07-23T23:20:46.267Z,61
2018-07-23T23:25:48.487Z,61.3
2018-07-23T23:30:51.036Z,61.4
2018-07-23T23:35:53.508Z,61.7
2018-07-23T23:40:55.907Z,61.9
2018-07-23T23:45:58.356Z,61.6
2018-07-23T23:51:01.001Z,61.6
2018-07-23T23:56:03.456Z,62
